Time;durP1;ratioP1;P1;durP2;ratioP2;P2;SDS_P1;SDS_P2;PMS_P1;PMS_P2;Temp;Humidity;BMP_temperature;BMP_pressure;BME280_temperature;BME280_humidity;BME280_pressure;Samples;Min_cycle;Max_cycle;Signal;HPM_P1;HPM_P2
2022/04/06 00:05:27;;;;;;;7.50;4.30;;;;;;;;;;4900112;29;20299;-86
2022/04/06 00:07:58;;;;;;;4.77;4.37;;;;;;;;;;4949829;29;20205;-86
2022/04/06 00:10:34;;;;;;;3.83;3.53;;;;;;;;;;4970163;28;20209;-87
2022/04/06 00:15:44;;;;;;;4.57;4.17;;;;;;;;;;5023364;28;20199;-86
2022/04/06 00:18:12;;;;;;;4.77;3.70;;;;;;;;;;5033392;28;20234;-87
2022/04/06 00:20:39;;;;;;;4.33;3.93;;;;;;;;;;5033367;28;20207;-87
2022/04/06 00:23:10;;;;;;;4.43;4.03;;;;;;;;;;5035877;28;20199;-87
2022/04/06 00:25:55;;;;;;;4.97;4.47;;;;;;;;;;5053595;28;20202;-85
2022/04/06 00:28:23;;;;;;;4.43;4.00;;;;;;;;;;5051287;28;20224;-87
2022/04/06 00:30:53;;;;;;;4.07;3.30;;;;;;;;;;5053446;28;20198;-86
2022/04/06 00:33:23;;;;;;;4.23;3.93;;;;;;;;;;5053055;28;20183;-87
2022/04/06 00:35:54;;;;;;;4.17;3.77;;;;;;;;;;5053305;28;20634;-87
2022/04/06 00:38:34;;;;;;;8.43;3.97;;;;;;;;;;5052530;28;20225;-87
2022/04/06 00:41:06;;;;;;;4.40;4.00;;;;;;;;;;5036445;28;20217;-88
2022/04/06 00:43:34;;;;;;;5.03;4.53;;;;;;;;;;5053490;28;20182;-86
2022/04/06 00:46:03;;;;;;;4.33;3.93;;;;;;;;;;5052775;28;20206;-88
2022/04/06 00:48:41;;;;;;;5.00;4.37;;;;;;;;;;5053299;28;20202;-88
2022/04/06 00:51:08;;;;;;;4.90;4.40;;;;;;;;;;5049801;28;20204;-86
2022/04/06 00:54:02;;;;;;;4.60;4.13;;;;;;;;;;5052923;28;20197;-87
2022/04/06 00:56:36;;;;;;;4.30;3.90;;;;;;;;;;5049897;28;20201;-87
2022/04/06 00:59:44;;;;;;;4.60;4.20;;;;;;;;;;5051841;28;20590;-87
2022/04/06 01:02:34;;;;;;;4.70;4.30;;;;;;;;;;5027621;28;20198;-86
2022/04/06 01:05:15;;;;;;;3.90;3.60;;;;;;;;;;5050547;28;20625;-87
2022/04/06 01:08:19;;;;;;;7.17;4.50;;;;;;;;;;5052627;28;20259;-87
2022/04/06 01:13:54;;;;;;;5.10;4.60;;;;;;;;;;5051414;28;20202;-87
2022/04/06 01:22:42;;;;;;;5.17;4.67;;;;;;;;;;5049205;28;20202;-87
2022/04/06 01:25:51;;;;;;;5.33;4.83;;;;;;;;;;5052026;28;20236;-88
2022/04/06 01:31:26;;;;;;;6.33;5.20;;;;;;;;;;5051154;28;20201;-86
2022/04/06 01:33:54;;;;;;;6.63;4.90;;;;;;;;;;5051164;28;20694;-87
2022/04/06 01:36:25;;;;;;;5.30;4.80;;;;;;;;;;5052037;28;20197;-87
2022/04/06 01:39:02;;;;;;;5.07;4.67;;;;;;;;;;5052059;28;20258;-85
2022/04/06 01:41:53;;;;;;;5.80;5.20;;;;;;;;;;5051892;28;20259;-87
2022/04/06 01:44:36;;;;;;;6.40;5.37;;;;;;;;;;5038215;28;20190;-87
2022/04/06 01:47:20;;;;;;;4.87;4.47;;;;;;;;;;5034261;28;20213;-88
2022/04/06 01:53:00;;;;;;;4.50;3.90;;;;;;;;;;5050585;28;20193;-88
2022/04/06 01:58:48;;;;;;;4.37;3.97;;;;;;;;;;5049823;28;20327;-88
2022/04/06 02:01:23;;;;;;;5.00;4.50;;;;;;;;;;4970907;28;20211;-89
2022/04/06 02:04:25;;;;;;;5.30;4.80;;;;;;;;;;5049689;28;20193;-88
2022/04/06 02:07:07;;;;;;;5.70;4.43;;;;;;;;;;5050070;28;20219;-89
2022/04/06 02:09:53;;;;;;;6.03;4.90;;;;;;;;;;5052283;28;20628;-87
2022/04/06 02:13:08;;;;;;;4.30;3.90;;;;;;;;;;5052018;28;20270;-87
2022/04/06 02:21:35;;;;;;;4.70;4.30;;;;;;;;;;5036510;28;20202;-86
2022/04/06 02:24:43;;;;;;;;;;;;;;;;;;;;;
2022/04/06 02:34:17;;;;;;;6.33;5.27;;;;;;;;;;4885383;29;20207;-87
2022/04/06 02:39:43;;;;;;;4.33;4.03;;;;;;;;;;4911504;29;20235;-88
2022/04/06 02:42:21;;;;;;;4.70;4.30;;;;;;;;;;4913521;29;20203;-89
2022/04/06 02:45:26;;;;;;;;;;;;;;;;;;;;;
2022/04/06 02:48:21;;;;;;;6.90;4.60;;;;;;;;;;4913668;29;20201;-87
2022/04/06 02:51:31;;;;;;;5.93;4.70;;;;;;;;;;4913752;29;20233;-90
2022/04/06 02:54:42;;;;;;;4.40;4.00;;;;;;;;;;4932882;28;20203;-88
2022/04/06 03:00:54;;;;;;;4.10;3.80;;;;;;;;;;4893540;29;20215;-88
2022/04/06 03:29:42;;;;;;;5.90;5.10;;;;;;;;;;4806167;29;20264;-89
2022/04/06 03:37:49;;;;;;;4.37;3.97;;;;;;;;;;4823079;29;20356;-88
2022/04/06 03:40:24;;;;;;;4.30;3.90;;;;;;;;;;4823867;29;20211;-87
2022/04/06 03:42:53;;;;;;;5.03;4.53;;;;;;;;;;4823631;29;20291;-89
2022/04/06 03:45:44;;;;;;;4.97;4.47;;;;;;;;;;4828574;29;20226;-88
2022/04/06 03:48:35;;;;;;;4.33;3.93;;;;;;;;;;4895403;29;20238;-89
2022/04/06 03:51:10;;;;;;;5.13;4.60;;;;;;;;;;4954787;29;20205;-89
2022/04/06 03:53:51;;;;;;;5.53;4.97;;;;;;;;;;4954991;29;20288;-88
2022/04/06 03:56:32;;;;;;;5.43;4.53;;;;;;;;;;4954306;29;20273;-89
2022/04/06 04:04:53;;;;;;;5.93;4.73;;;;;;;;;;5010633;28;20286;-90
2022/04/06 04:10:46;;;;;;;5.63;5.03;;;;;;;;;;4993430;28;20198;-88
2022/04/06 04:13:43;;;;;;;5.83;5.03;;;;;;;;;;5014183;28;20184;-89
2022/04/06 04:16:37;;;;;;;4.87;4.37;;;;;;;;;;5013739;28;20203;-87
2022/04/06 04:21:59;;;;;;;8.47;5.53;;;;;;;;;;5032814;28;20285;-89
2022/04/06 04:24:30;;;;;;;5.37;4.87;;;;;;;;;;5044751;28;20221;-88
2022/04/06 04:27:36;;;;;;;4.93;4.43;;;;;;;;;;5054167;28;20202;-89
2022/04/06 04:33:06;;;;;;;7.80;4.83;;;;;;;;;;4992678;28;20196;-89
2022/04/06 04:36:18;;;;;;;;;;;;;;;;;;;;;
2022/04/06 04:57:58;;;;;;;5.77;5.17;;;;;;;;;;4858625;29;20206;-87
2022/04/06 05:01:22;;;;;;;7.27;5.90;;;;;;;;;;4858586;29;20234;-89
2022/04/06 05:06:43;;;;;;;71.47;41.43;;;;;;;;;;4850985;29;20302;-89
2022/04/06 05:09:50;;;;;;;11.30;8.63;;;;;;;;;;4861772;29;20576;-88
2022/04/06 05:12:48;;;;;;;15.57;10.33;;;;;;;;;;4858866;29;20209;-89
2022/04/06 05:15:58;;;;;;;18.20;12.40;;;;;;;;;;4851320;29;20717;-89
2022/04/06 05:21:52;;;;;;;11.23;8.80;;;;;;;;;;4765787;30;20797;-88
2022/04/06 05:24:25;;;;;;;9.53;8.07;;;;;;;;;;4758444;30;20252;-89
2022/04/06 05:26:59;;;;;;;8.57;7.13;;;;;;;;;;4750480;30;20589;-88
2022/04/06 05:35:54;;;;;;;7.10;6.40;;;;;;;;;;4732922;30;20206;-89
2022/04/06 05:41:27;;;;;;;11.43;5.87;;;;;;;;;;4715290;30;20209;-88
2022/04/06 05:53:04;;;;;;;7.37;6.10;;;;;;;;;;4821999;29;20207;-89
2022/04/06 05:55:42;;;;;;;4.80;4.20;;;;;;;;;;4833438;29;20598;-89
2022/04/06 05:58:24;;;;;;;3.53;3.13;;;;;;;;;;4839967;29;20204;-89
2022/04/06 06:00:57;;;;;;;4.57;3.60;;;;;;;;;;4894938;29;20232;-89
2022/04/06 06:06:30;;;;;;;3.43;3.13;;;;;;;;;;4891216;29;20212;-88
2022/04/06 06:08:57;;;;;;;5.87;3.30;;;;;;;;;;4895237;29;20667;-88
2022/04/06 06:11:26;;;;;;;3.60;3.30;;;;;;;;;;4895392;29;20200;-88
2022/04/06 06:13:54;;;;;;;5.03;4.57;;;;;;;;;;5019138;28;20199;-87
2022/04/06 06:16:21;;;;;;;3.40;3.10;;;;;;;;;;5031816;28;20289;-89
2022/04/06 06:18:48;;;;;;;6.80;3.80;;;;;;;;;;5031632;28;20209;-88
2022/04/06 06:21:15;;;;;;;4.20;3.80;;;;;;;;;;5032231;28;20277;-88
2022/04/06 06:23:43;;;;;;;3.77;3.47;;;;;;;;;;5034689;28;20226;-86
2022/04/06 06:26:10;;;;;;;4.37;3.97;;;;;;;;;;5052173;28;20255;-88
2022/04/06 06:28:39;;;;;;;3.43;3.23;;;;;;;;;;5051505;28;20197;-87
2022/04/06 06:31:06;;;;;;;3.73;3.43;;;;;;;;;;5051849;28;20220;-85
2022/04/06 06:33:33;;;;;;;4.37;3.67;;;;;;;;;;5051723;28;20198;-85
2022/04/06 06:36:00;;;;;;;5.07;4.17;;;;;;;;;;5054503;28;20194;-85
2022/04/06 06:38:28;;;;;;;4.20;3.40;;;;;;;;;;5055388;28;20197;-86
2022/04/06 06:40:55;;;;;;;3.13;2.87;;;;;;;;;;5055669;28;20221;-86
2022/04/06 06:43:22;;;;;;;5.83;3.43;;;;;;;;;;5055753;28;20202;-85
2022/04/06 06:45:51;;;;;;;4.07;3.13;;;;;;;;;;5055436;28;20293;-84
2022/04/06 06:48:18;;;;;;;5.67;3.20;;;;;;;;;;5055275;28;20205;-85
2022/04/06 06:50:45;;;;;;;3.50;3.20;;;;;;;;;;5055206;28;20194;-85
2022/04/06 06:53:12;;;;;;;3.60;3.30;;;;;;;;;;5055320;28;20269;-85
2022/04/06 06:55:40;;;;;;;5.23;3.43;;;;;;;;;;5055219;28;20701;-85
2022/04/06 06:58:07;;;;;;;5.97;3.80;;;;;;;;;;5055435;28;20198;-85
2022/04/06 07:00:34;;;;;;;5.27;3.03;;;;;;;;;;5054761;28;20217;-84
2022/04/06 07:03:03;;;;;;;5.73;3.20;;;;;;;;;;5055570;28;20208;-85
2022/04/06 07:05:30;;;;;;;3.97;3.30;;;;;;;;;;5055094;28;20744;-84
2022/04/06 07:07:59;;;;;;;3.70;2.97;;;;;;;;;;5055076;28;20198;-85
2022/04/06 07:10:29;;;;;;;9.13;3.03;;;;;;;;;;5054898;28;20201;-85
2022/04/06 07:12:56;;;;;;;6.83;3.20;;;;;;;;;;5055167;28;20280;-84
2022/04/06 07:15:23;;;;;;;5.53;3.63;;;;;;;;;;5055007;28;20202;-85
2022/04/06 07:17:53;;;;;;;3.60;3.30;;;;;;;;;;5054930;28;20204;-85
2022/04/06 07:20:24;;;;;;;3.53;3.23;;;;;;;;;;5054615;28;20826;-84
2022/04/06 07:22:52;;;;;;;12.27;10.90;;;;;;;;;;5054723;28;20746;-85
2022/04/06 07:25:19;;;;;;;6.03;4.97;;;;;;;;;;5054525;28;20233;-85
2022/04/06 07:27:46;;;;;;;8.87;7.97;;;;;;;;;;5054680;28;20198;-85
2022/04/06 07:30:14;;;;;;;3.47;3.23;;;;;;;;;;5054907;28;20300;-84
2022/04/06 07:32:41;;;;;;;4.37;2.97;;;;;;;;;;5055012;28;20610;-85
2022/04/06 07:35:10;;;;;;;5.57;3.53;;;;;;;;;;5054434;28;20240;-85
2022/04/06 07:37:40;;;;;;;10.13;4.47;;;;;;;;;;5054749;28;20198;-85
2022/04/06 07:40:09;;;;;;;3.37;3.13;;;;;;;;;;5054445;28;20222;-85
2022/04/06 07:42:36;;;;;;;4.70;3.27;;;;;;;;;;5054621;28;20201;-85
2022/04/06 07:45:04;;;;;;;3.70;3.40;;;;;;;;;;5054043;28;20212;-85
2022/04/06 07:47:31;;;;;;;5.47;4.93;;;;;;;;;;5053408;28;20300;-85
2022/04/06 07:50:00;;;;;;;4.27;3.50;;;;;;;;;;5054257;28;20200;-85
2022/04/06 07:52:28;;;;;;;7.20;3.30;;;;;;;;;;5054421;28;20323;-85
2022/04/06 07:54:56;;;;;;;6.00;4.17;;;;;;;;;;5053907;28;20205;-85
2022/04/06 07:57:24;;;;;;;5.60;4.87;;;;;;;;;;5054234;28;20202;-85
2022/04/06 07:59:52;;;;;;;5.37;4.00;;;;;;;;;;5053933;28;20244;-85
2022/04/06 08:02:19;;;;;;;5.70;4.07;;;;;;;;;;5054643;28;20194;-85
2022/04/06 08:04:46;;;;;;;6.13;5.63;;;;;;;;;;5054289;28;20613;-85
2022/04/06 08:07:13;;;;;;;5.70;5.20;;;;;;;;;;5054195;28;20285;-85
2022/04/06 08:09:41;;;;;;;6.00;5.40;;;;;;;;;;5045613;28;20292;-85
2022/04/06 08:12:10;;;;;;;8.97;6.23;;;;;;;;;;5053954;28;20194;-86
2022/04/06 08:14:37;;;;;;;6.47;5.87;;;;;;;;;;5053801;28;20208;-85
2022/04/06 08:17:04;;;;;;;15.47;9.17;;;;;;;;;;5053768;28;20198;-85
2022/04/06 08:19:31;;;;;;;8.83;6.67;;;;;;;;;;5053783;28;20246;-85
2022/04/06 08:21:59;;;;;;;11.80;7.63;;;;;;;;;;5054192;28;20231;-85
2022/04/06 08:24:27;;;;;;;13.53;12.33;;;;;;;;;;5053394;28;20238;-86
2022/04/06 08:26:54;;;;;;;7.80;7.07;;;;;;;;;;5053496;28;20199;-85
2022/04/06 08:29:23;;;;;;;10.97;9.43;;;;;;;;;;5053999;28;20391;-85
2022/04/06 08:31:50;;;;;;;11.67;10.40;;;;;;;;;;5053799;28;20289;-85
2022/04/06 08:34:18;;;;;;;17.03;7.30;;;;;;;;;;5053646;28;20609;-86
2022/04/06 08:36:45;;;;;;;7.57;6.67;;;;;;;;;;5053536;28;20192;-86
2022/04/06 08:39:12;;;;;;;7.67;6.93;;;;;;;;;;5053461;28;20197;-86
2022/04/06 08:41:40;;;;;;;7.97;6.63;;;;;;;;;;5053273;28;20514;-86
2022/04/06 08:44:09;;;;;;;11.40;7.27;;;;;;;;;;5053478;28;20574;-84
2022/04/06 08:46:38;;;;;;;8.73;6.17;;;;;;;;;;5053482;28;20203;-86
2022/04/06 08:49:06;;;;;;;6.67;6.07;;;;;;;;;;5053237;28;20221;-86
2022/04/06 08:51:34;;;;;;;8.53;6.90;;;;;;;;;;5053074;28;20228;-85
2022/04/06 08:54:02;;;;;;;12.13;7.67;;;;;;;;;;5053122;28;20672;-85
2022/04/06 08:56:30;;;;;;;8.80;5.37;;;;;;;;;;5053518;28;20673;-86
2022/04/06 08:58:58;;;;;;;6.30;4.20;;;;;;;;;;5052762;28;20197;-85
2022/04/06 09:01:27;;;;;;;6.13;4.57;;;;;;;;;;5053192;28;20223;-85
2022/04/06 09:03:56;;;;;;;8.57;4.83;;;;;;;;;;5052918;28;20200;-85
2022/04/06 09:06:25;;;;;;;4.63;4.23;;;;;;;;;;5053309;28;20201;-86
2022/04/06 09:08:52;;;;;;;5.13;4.73;;;;;;;;;;5053374;28;20240;-86
2022/04/06 09:11:20;;;;;;;6.17;4.50;;;;;;;;;;5053060;28;20550;-85
2022/04/06 09:13:48;;;;;;;4.47;4.07;;;;;;;;;;5052766;28;20296;-86
2022/04/06 09:16:17;;;;;;;4.43;3.47;;;;;;;;;;5052981;28;20209;-86
2022/04/06 09:18:46;;;;;;;4.63;4.13;;;;;;;;;;5052945;28;20196;-86
2022/04/06 09:21:19;;;;;;;4.10;3.70;;;;;;;;;;5052665;28;20225;-86
2022/04/06 09:23:48;;;;;;;6.43;5.67;;;;;;;;;;5052327;28;20272;-86
2022/04/06 09:26:19;;;;;;;4.13;3.27;;;;;;;;;;5052643;28;20198;-86
2022/04/06 09:28:47;;;;;;;19.63;14.80;;;;;;;;;;5045196;28;20658;-86
2022/04/06 09:31:16;;;;;;;35.13;25.43;;;;;;;;;;5052736;28;20194;-86
2022/04/06 09:33:44;;;;;;;16.37;12.90;;;;;;;;;;5053734;28;20201;-86
2022/04/06 09:36:22;;;;;;;12.47;9.90;;;;;;;;;;5052868;28;20208;-86
2022/04/06 09:38:50;;;;;;;6.53;6.03;;;;;;;;;;5052357;28;20674;-85
2022/04/06 09:41:19;;;;;;;4.30;3.40;;;;;;;;;;5052232;28;20263;-86
2022/04/06 09:43:47;;;;;;;3.87;3.50;;;;;;;;;;5052162;28;20201;-85
2022/04/06 09:49:05;;;;;;;4.73;4.10;;;;;;;;;;5052466;28;20181;-86
2022/04/06 09:51:34;;;;;;;7.70;6.90;;;;;;;;;;5052468;28;20643;-86
2022/04/06 09:54:04;;;;;;;13.93;12.53;;;;;;;;;;5052426;28;20280;-85
2022/04/06 09:56:32;;;;;;;4.27;3.73;;;;;;;;;;5052242;28;20204;-86
2022/04/06 09:58:59;;;;;;;3.90;3.50;;;;;;;;;;5052037;28;20208;-85
2022/04/06 10:01:32;;;;;;;4.50;3.40;;;;;;;;;;5052150;28;20368;-85
2022/04/06 10:04:03;;;;;;;5.27;4.30;;;;;;;;;;5052356;28;20190;-86
2022/04/06 10:06:34;;;;;;;6.33;3.73;;;;;;;;;;5052111;28;20280;-86
2022/04/06 10:09:02;;;;;;;3.77;3.47;;;;;;;;;;5052040;28;20192;-86
2022/04/06 10:11:30;;;;;;;3.93;3.63;;;;;;;;;;5051917;28;20205;-86
2022/04/06 10:13:58;;;;;;;6.13;3.70;;;;;;;;;;5051852;28;20247;-86
2022/04/06 10:16:25;;;;;;;4.43;3.87;;;;;;;;;;5052480;28;20205;-86
2022/04/06 10:18:54;;;;;;;4.80;4.40;;;;;;;;;;5051832;28;20206;-86
2022/04/06 10:21:27;;;;;;;3.83;3.53;;;;;;;;;;5051793;28;20217;-86
2022/04/06 10:24:08;;;;;;;4.27;3.87;;;;;;;;;;5051702;28;20718;-86
2022/04/06 10:26:41;;;;;;;3.60;3.30;;;;;;;;;;5052275;28;20571;-86
2022/04/06 10:29:08;;;;;;;6.37;2.57;;;;;;;;;;5051855;28;20659;-86
2022/04/06 10:31:35;;;;;;;2.87;2.67;;;;;;;;;;5051996;28;20193;-86
2022/04/06 10:34:20;;;;;;;2.93;2.73;;;;;;;;;;5052039;28;20718;-86
2022/04/06 10:37:05;;;;;;;3.63;3.33;;;;;;;;;;5044475;28;20182;-86
2022/04/06 10:39:34;;;;;;;4.60;3.43;;;;;;;;;;5051794;28;20189;-86
2022/04/06 10:42:18;;;;;;;3.80;3.43;;;;;;;;;;5051811;28;20225;-86
2022/04/06 10:44:45;;;;;;;4.80;2.70;;;;;;;;;;5044348;28;20225;-86
2022/04/06 10:47:14;;;;;;;3.67;3.10;;;;;;;;;;5051834;28;20733;-86
2022/04/06 10:49:42;;;;;;;3.40;3.03;;;;;;;;;;5043666;28;20220;-86
2022/04/06 10:52:19;;;;;;;5.00;3.43;;;;;;;;;;5051727;28;20288;-86
2022/04/06 10:54:48;;;;;;;3.30;2.73;;;;;;;;;;5052057;28;20194;-86
2022/04/06 10:57:15;;;;;;;3.30;3.00;;;;;;;;;;5051893;28;20198;-86
2022/04/06 10:59:42;;;;;;;3.43;3.13;;;;;;;;;;5043503;28;20198;-86
2022/04/06 11:02:20;;;;;;;5.13;4.63;;;;;;;;;;5051912;28;20242;-86
2022/04/06 11:04:48;;;;;;;6.13;3.73;;;;;;;;;;5051838;28;20240;-86
2022/04/06 11:10:06;;;;;;;5.60;4.40;;;;;;;;;;5051504;28;20194;-86
2022/04/06 11:10:16;;;;;;;5.83;5.23;;;;;;;;;;5051497;28;20193;-86
2022/04/06 11:13:04;;;;;;;3.07;2.87;;;;;;;;;;5043569;28;20182;-86
2022/04/06 11:15:37;;;;;;;14.20;10.27;;;;;;;;;;5051403;28;20191;-86
2022/04/06 11:18:06;;;;;;;7.07;4.47;;;;;;;;;;5051579;28;20662;-86
2022/04/06 11:20:34;;;;;;;6.43;5.70;;;;;;;;;;5052028;28;20633;-86
2022/04/06 11:23:02;;;;;;;10.23;3.40;;;;;;;;;;5055254;28;20577;-86
2022/04/06 11:25:31;;;;;;;4.53;3.50;;;;;;;;;;5054365;28;20235;-85
2022/04/06 11:28:07;;;;;;;5.00;3.40;;;;;;;;;;5055246;28;20658;-86
2022/04/06 11:30:35;;;;;;;4.00;3.60;;;;;;;;;;5054834;28;20193;-86
2022/04/06 11:33:05;;;;;;;5.30;3.07;;;;;;;;;;5054853;28;20206;-86
2022/04/06 11:35:33;;;;;;;4.80;3.27;;;;;;;;;;5055044;28;20198;-85
2022/04/06 11:38:03;;;;;;;3.30;3.00;;;;;;;;;;5054720;28;20205;-86
2022/04/06 11:40:33;;;;;;;6.53;5.90;;;;;;;;;;5054618;28;20197;-86
2022/04/06 11:43:04;;;;;;;5.93;3.00;;;;;;;;;;5054635;28;20236;-86
2022/04/06 11:45:33;;;;;;;5.43;4.50;;;;;;;;;;5054950;28;20281;-86
2022/04/06 11:48:01;;;;;;;3.17;2.97;;;;;;;;;;5054880;28;20202;-86
2022/04/06 11:50:29;;;;;;;4.60;2.93;;;;;;;;;;5054518;28;20194;-86
2022/04/06 11:52:57;;;;;;;3.00;2.80;;;;;;;;;;5054837;28;20221;-86
2022/04/06 11:55:44;;;;;;;2.67;2.47;;;;;;;;;;5054437;28;20299;-86
2022/04/06 11:58:11;;;;;;;3.50;2.80;;;;;;;;;;5054626;28;20566;-86
2022/04/06 12:00:39;;;;;;;3.60;3.30;;;;;;;;;;5054477;28;20202;-86
2022/04/06 12:03:06;;;;;;;4.33;3.20;;;;;;;;;;5054419;28;20201;-86
2022/04/06 12:05:33;;;;;;;4.30;3.13;;;;;;;;;;5054497;28;20688;-86
2022/04/06 12:08:09;;;;;;;3.53;2.70;;;;;;;;;;5054141;28;20659;-86
2022/04/06 12:10:36;;;;;;;4.10;2.90;;;;;;;;;;5053913;28;20689;-85
2022/04/06 12:13:05;;;;;;;3.03;2.80;;;;;;;;;;5054224;28;20209;-86
2022/04/06 12:15:32;;;;;;;2.30;2.20;;;;;;;;;;5054388;28;20679;-86
2022/04/06 12:18:00;;;;;;;3.87;2.57;;;;;;;;;;5054529;28;20201;-86
2022/04/06 12:20:28;;;;;;;2.80;2.60;;;;;;;;;;5053894;28;20288;-85
2022/04/06 12:23:05;;;;;;;3.33;2.53;;;;;;;;;;5053758;28;20209;-86
2022/04/06 12:25:33;;;;;;;3.40;3.07;;;;;;;;;;5053755;28;20237;-86
2022/04/06 12:28:12;;;;;;;14.47;11.37;;;;;;;;;;5053847;28;20193;-85
2022/04/06 12:30:57;;;;;;;9.87;8.90;;;;;;;;;;5053928;28;20738;-86
2022/04/06 12:33:39;;;;;;;5.67;3.83;;;;;;;;;;5052854;28;20200;-86
2022/04/06 12:36:08;;;;;;;2.50;2.30;;;;;;;;;;5053659;28;20194;-86
2022/04/06 12:38:35;;;;;;;5.00;3.00;;;;;;;;;;5053647;28;20200;-86
2022/04/06 12:41:07;;;;;;;4.67;3.30;;;;;;;;;;5053581;28;20225;-86
2022/04/06 12:43:39;;;;;;;2.97;2.77;;;;;;;;;;5053339;28;20288;-86
2022/04/06 12:46:06;;;;;;;2.73;2.53;;;;;;;;;;5053817;28;20578;-85
2022/04/06 12:48:33;;;;;;;5.17;3.60;;;;;;;;;;5053413;28;20641;-85
2022/04/06 12:51:18;;;;;;;5.90;3.43;;;;;;;;;;5053174;28;20189;-85
2022/04/06 12:53:50;;;;;;;4.67;4.27;;;;;;;;;;5045688;28;20196;-86
2022/04/06 12:56:22;;;;;;;9.20;6.80;;;;;;;;;;5053195;28;20198;-86
2022/04/06 12:59:10;;;;;;;12.93;5.90;;;;;;;;;;5053145;28;20280;-86
2022/04/06 13:01:47;;;;;;;5.90;4.43;;;;;;;;;;5053047;28;20225;-85
2022/04/06 13:04:15;;;;;;;4.40;4.00;;;;;;;;;;5052877;28;20201;-85
2022/04/06 13:06:42;;;;;;;5.17;4.33;;;;;;;;;;5052664;28;20204;-85
2022/04/06 13:09:13;;;;;;;4.03;3.73;;;;;;;;;;5052842;28;20201;-85
2022/04/06 13:11:40;;;;;;;6.60;4.33;;;;;;;;;;5052780;28;20186;-85
2022/04/06 13:14:09;;;;;;;3.73;3.43;;;;;;;;;;5052706;28;20209;-85
2022/04/06 13:16:36;;;;;;;6.03;3.97;;;;;;;;;;5052820;28;20208;-85
2022/04/06 13:19:05;;;;;;;3.77;2.50;;;;;;;;;;5053031;28;20198;-85
2022/04/06 13:21:34;;;;;;;3.40;3.10;;;;;;;;;;5052710;28;20241;-86
2022/04/06 13:24:03;;;;;;;3.70;3.10;;;;;;;;;;5052211;28;20776;-85
2022/04/06 13:26:30;;;;;;;3.53;2.77;;;;;;;;;;5052726;28;20202;-85
2022/04/06 13:28:57;;;;;;;10.90;7.80;;;;;;;;;;5052458;28;20205;-85
2022/04/06 13:31:27;;;;;;;3.87;3.50;;;;;;;;;;5052714;28;20193;-85
2022/04/06 13:33:54;;;;;;;12.57;11.37;;;;;;;;;;5052293;28;20204;-85
2022/04/06 13:36:22;;;;;;;10.07;7.30;;;;;;;;;;5052265;28;20236;-85
2022/04/06 13:38:49;;;;;;;4.20;3.87;;;;;;;;;;5052241;28;20189;-84
2022/04/06 13:41:16;;;;;;;2.90;2.60;;;;;;;;;;5052446;28;20222;-85
2022/04/06 13:43:43;;;;;;;2.90;2.60;;;;;;;;;;5051867;28;20244;-84
2022/04/06 13:46:12;;;;;;;3.03;2.80;;;;;;;;;;5052056;28;20190;-85
2022/04/06 13:48:41;;;;;;;3.67;3.20;;;;;;;;;;5052709;28;20190;-85
2022/04/06 13:51:08;;;;;;;8.53;3.40;;;;;;;;;;5052208;28;20190;-85
2022/04/06 13:53:35;;;;;;;3.97;2.90;;;;;;;;;;5052207;28;20189;-84
2022/04/06 13:56:03;;;;;;;3.23;2.93;;;;;;;;;;5052049;28;20208;-85
2022/04/06 13:58:30;;;;;;;2.97;2.77;;;;;;;;;;5052371;28;20202;-85
2022/04/06 14:00:58;;;;;;;3.30;3.00;;;;;;;;;;5051817;28;20205;-85
2022/04/06 14:03:25;;;;;;;3.33;2.60;;;;;;;;;;5052077;28;20300;-85
2022/04/06 14:05:55;;;;;;;3.43;2.60;;;;;;;;;;5051921;28;20202;-85
2022/04/06 14:08:23;;;;;;;2.50;2.30;;;;;;;;;;5052178;28;20280;-85
2022/04/06 14:10:50;;;;;;;3.30;2.50;;;;;;;;;;5051726;28;20190;-85
2022/04/06 14:13:18;;;;;;;3.23;2.83;;;;;;;;;;5051980;28;20635;-85
2022/04/06 14:15:45;;;;;;;2.30;2.10;;;;;;;;;;5051654;28;20201;-85
2022/04/06 14:18:12;;;;;;;3.63;3.17;;;;;;;;;;5057444;28;20204;-85
2022/04/06 14:20:40;;;;;;;4.83;3.70;;;;;;;;;;5070750;28;20292;-85
2022/04/06 14:23:08;;;;;;;3.83;2.83;;;;;;;;;;5059671;28;20225;-85
2022/04/06 14:25:36;;;;;;;5.37;2.70;;;;;;;;;;5071471;28;20236;-85
2022/04/06 14:28:03;;;;;;;4.50;2.70;;;;;;;;;;5071632;28;20284;-85
2022/04/06 14:30:31;;;;;;;3.30;2.00;;;;;;;;;;5071725;28;20220;-85
2022/04/06 14:32:58;;;;;;;6.20;2.30;;;;;;;;;;5071745;28;20204;-85
2022/04/06 14:35:26;;;;;;;4.57;2.63;;;;;;;;;;5052051;28;20212;-85
2022/04/06 14:37:53;;;;;;;3.17;2.83;;;;;;;;;;5051555;28;20194;-85
2022/04/06 14:40:22;;;;;;;6.57;3.50;;;;;;;;;;5051461;28;20198;-85
2022/04/06 14:42:49;;;;;;;5.40;3.93;;;;;;;;;;5051480;28;20697;-85
2022/04/06 14:45:18;;;;;;;6.73;4.00;;;;;;;;;;5051282;28;20230;-79
2022/04/06 14:47:46;;;;;;;6.33;3.87;;;;;;;;;;5051167;28;20256;-79
2022/04/06 14:50:13;;;;;;;8.30;4.23;;;;;;;;;;5050920;28;20678;-79
2022/04/06 14:52:40;;;;;;;5.03;4.53;;;;;;;;;;5050728;28;20758;-78
2022/04/06 14:55:08;;;;;;;5.63;3.97;;;;;;;;;;5050992;28;20198;-78
2022/04/06 14:57:37;;;;;;;7.57;4.33;;;;;;;;;;5054744;28;20198;-78
2022/04/06 15:00:05;;;;;;;5.90;3.90;;;;;;;;;;5054818;28;20225;-78
2022/04/06 15:02:32;;;;;;;4.90;3.93;;;;;;;;;;5054778;28;20222;-78
2022/04/06 15:04:59;;;;;;;6.23;4.00;;;;;;;;;;5054611;28;20201;-79
2022/04/06 15:07:28;;;;;;;8.30;3.80;;;;;;;;;;5055077;28;20201;-78
2022/04/06 15:09:55;;;;;;;7.43;3.80;;;;;;;;;;5054930;28;20237;-78
2022/04/06 15:12:22;;;;;;;5.70;3.30;;;;;;;;;;5054730;28;20205;-78
2022/04/06 15:14:51;;;;;;;3.37;2.80;;;;;;;;;;5054653;28;20272;-78
2022/04/06 15:17:18;;;;;;;4.03;3.03;;;;;;;;;;5055081;28;20229;-78
2022/04/06 15:19:46;;;;;;;4.00;3.60;;;;;;;;;;5054383;28;20194;-78
2022/04/06 15:22:13;;;;;;;5.97;3.50;;;;;;;;;;5054421;28;20225;-78
2022/04/06 15:24:40;;;;;;;4.50;3.40;;;;;;;;;;5054284;28;20615;-79
2022/04/06 15:27:08;;;;;;;6.13;3.67;;;;;;;;;;5054783;28;20635;-78
2022/04/06 15:29:36;;;;;;;3.83;3.10;;;;;;;;;;5054682;28;20197;-78
2022/04/06 15:32:06;;;;;;;4.50;3.73;;;;;;;;;;5054367;28;20201;-78
2022/04/06 15:37:22;;;;;;;3.50;3.20;;;;;;;;;;5055586;28;20220;-78
2022/04/06 15:39:51;;;;;;;3.83;3.37;;;;;;;;;;5053956;28;20576;-78
2022/04/06 15:42:24;;;;;;;3.10;2.90;;;;;;;;;;5054110;28;20805;-78
2022/04/06 15:44:53;;;;;;;5.20;3.47;;;;;;;;;;5053902;28;20190;-78
2022/04/06 15:47:22;;;;;;;6.97;3.77;;;;;;;;;;5057310;28;20248;-78
2022/04/06 15:49:50;;;;;;;4.20;3.80;;;;;;;;;;5056830;28;20219;-78
2022/04/06 15:52:17;;;;;;;4.43;3.30;;;;;;;;;;5074393;28;20212;-78
2022/04/06 15:54:44;;;;;;;4.40;3.23;;;;;;;;;;5074037;28;20633;-78
2022/04/06 15:57:13;;;;;;;3.63;3.07;;;;;;;;;;5074023;28;20205;-78
2022/04/06 15:59:40;;;;;;;4.67;3.57;;;;;;;;;;5074197;28;20200;-78
2022/04/06 16:02:08;;;;;;;4.60;3.00;;;;;;;;;;5073931;28;20779;-84
2022/04/06 16:04:36;;;;;;;4.27;3.67;;;;;;;;;;5073512;28;20604;-84
2022/04/06 16:07:04;;;;;;;4.40;4.00;;;;;;;;;;5073075;28;20232;-84
2022/04/06 16:09:32;;;;;;;19.07;12.50;;;;;;;;;;5073907;28;20203;-84
2022/04/06 16:12:01;;;;;;;9.30;8.23;;;;;;;;;;5073347;28;20206;-83
2022/04/06 16:14:28;;;;;;;5.90;4.03;;;;;;;;;;5074117;28;20232;-84
2022/04/06 16:16:58;;;;;;;6.07;5.10;;;;;;;;;;5073689;28;20208;-84
2022/04/06 16:19:25;;;;;;;6.77;5.07;;;;;;;;;;5073556;28;20208;-84
2022/04/06 16:21:54;;;;;;;6.33;3.83;;;;;;;;;;5073518;28;20204;-84
2022/04/06 16:24:22;;;;;;;5.80;3.43;;;;;;;;;;5072850;28;20794;-84
2022/04/06 16:26:49;;;;;;;7.77;4.53;;;;;;;;;;5073563;28;20291;-84
2022/04/06 16:29:17;;;;;;;6.90;5.27;;;;;;;;;;5073306;28;20282;-84
2022/04/06 16:31:45;;;;;;;8.43;5.07;;;;;;;;;;5073287;28;20776;-83
2022/04/06 16:34:12;;;;;;;10.80;6.17;;;;;;;;;;5073170;28;20196;-83
2022/04/06 16:36:42;;;;;;;25.60;18.50;;;;;;;;;;5073182;28;20291;-84
2022/04/06 16:39:11;;;;;;;10.93;8.43;;;;;;;;;;5073187;28;20196;-83
2022/04/06 16:41:38;;;;;;;16.30;11.20;;;;;;;;;;5073242;28;20679;-83
2022/04/06 16:44:07;;;;;;;11.40;9.60;;;;;;;;;;5072892;28;20238;-83
2022/04/06 16:46:36;;;;;;;10.37;8.10;;;;;;;;;;5072981;28;20204;-84
2022/04/06 16:49:04;;;;;;;30.10;26.83;;;;;;;;;;5072895;28;20739;-84
2022/04/06 16:54:19;;;;;;;276.40;124.07;;;;;;;;;;5073013;28;20660;-83
2022/04/06 16:56:47;;;;;;;260.03;129.10;;;;;;;;;;5073000;28;20204;-84
2022/04/06 16:59:14;;;;;;;129.57;70.83;;;;;;;;;;5072613;28;20200;-83
2022/04/06 17:01:42;;;;;;;68.13;39.90;;;;;;;;;;5072795;28;20200;-84
2022/04/06 17:04:09;;;;;;;42.33;29.10;;;;;;;;;;5072430;28;20296;-84
2022/04/06 17:06:38;;;;;;;37.17;26.63;;;;;;;;;;5072425;28;20212;-83
2022/04/06 17:09:07;;;;;;;40.50;26.17;;;;;;;;;;5072537;28;20211;-83
2022/04/06 17:11:36;;;;;;;25.87;19.87;;;;;;;;;;5072656;28;20218;-84
2022/04/06 17:14:04;;;;;;;18.43;12.27;;;;;;;;;;5072585;28;20203;-83
2022/04/06 17:16:31;;;;;;;21.03;13.10;;;;;;;;;;5072242;28;20228;-83
2022/04/06 17:18:59;;;;;;;13.87;11.43;;;;;;;;;;5072094;28;20569;-83
2022/04/06 17:21:27;;;;;;;12.17;10.13;;;;;;;;;;5072513;28;20257;-83
2022/04/06 17:23:55;;;;;;;19.07;13.23;;;;;;;;;;5071737;28;20727;-83
2022/04/06 17:26:23;;;;;;;6.40;5.17;;;;;;;;;;5072455;28;20272;-83
2022/04/06 17:28:52;;;;;;;7.87;5.57;;;;;;;;;;5072460;28;20196;-83
2022/04/06 17:31:19;;;;;;;5.23;4.73;;;;;;;;;;5072382;28;20185;-83
2022/04/06 17:33:46;;;;;;;5.77;5.27;;;;;;;;;;5071861;28;20280;-82
2022/04/06 17:36:14;;;;;;;7.10;4.37;;;;;;;;;;5072233;28;20267;-83
2022/04/06 17:38:41;;;;;;;27.20;15.73;;;;;;;;;;5072243;28;20281;-83